createdAt,value
2022-10-23T00:01:27.823Z,5.01
2022-10-23T00:04:02.113Z,5.00
2022-10-23T00:06:35.796Z,4.99
2022-10-23T00:09:09.922Z,4.99
2022-10-23T00:11:42.414Z,5.00
2022-10-23T00:14:16.507Z,5.01
2022-10-23T00:16:50.729Z,4.99
2022-10-23T00:19:23.225Z,5.04
2022-10-23T00:21:55.587Z,5.06
2022-10-23T00:24:28.118Z,5.11
2022-10-23T00:27:00.639Z,5.13
2022-10-23T00:29:33.129Z,5.17
2022-10-23T00:32:06.958Z,5.22
2022-10-23T00:34:39.385Z,5.26
2022-10-23T00:37:11.915Z,5.30
2022-10-23T00:39:44.403Z,5.34
2022-10-23T00:42:18.517Z,5.37
2022-10-23T00:45:17.362Z,5.39
2022-10-23T00:47:51.683Z,5.40
2022-10-23T00:50:26.035Z,5.42
2022-10-23T00:53:04.791Z,5.45
2022-10-23T00:55:38.515Z,5.50
2022-10-23T00:58:11.534Z,5.51
2022-10-23T01:00:47.478Z,5.55
2022-10-23T01:03:25.266Z,5.53
2022-10-23T01:06:05.344Z,5.56
2022-10-23T01:08:47.306Z,5.56
2022-10-23T01:11:24.977Z,5.56
2022-10-23T01:16:46.490Z,5.57
2022-10-23T01:19:29.422Z,5.55
2022-10-23T01:22:13.468Z,5.60
2022-10-23T01:24:53.837Z,5.62
2022-10-23T01:27:32.940Z,5.64
2022-10-23T01:30:08.213Z,5.67
2022-10-23T01:32:51.229Z,5.69
2022-10-23T01:35:27.973Z,5.71
2022-10-23T01:38:12.806Z,5.73
2022-10-23T01:40:55.143Z,5.63
2022-10-23T01:43:34.513Z,5.73
2022-10-23T01:46:11.093Z,5.75
2022-10-23T01:48:51.507Z,5.74
2022-10-23T01:51:28.148Z,5.78
2022-10-23T01:54:09.735Z,5.81
2022-10-23T01:56:46.752Z,5.82
2022-10-23T01:59:24.309Z,5.79
2022-10-23T02:01:59.339Z,5.83
2022-10-23T02:04:36.958Z,5.84
2022-10-23T02:07:09.532Z,5.84
2022-10-23T02:09:41.985Z,5.85
2022-10-23T02:12:19.730Z,5.83
2022-10-23T02:14:58.430Z,5.89
2022-10-23T02:17:41.835Z,5.90
2022-10-23T02:20:21.225Z,5.88
2022-10-23T02:23:01.422Z,5.92
2022-10-23T02:25:39.336Z,5.93
2022-10-23T02:28:16.064Z,5.95
2022-10-23T02:30:52.851Z,5.88
2022-10-23T02:33:27.586Z,5.97
2022-10-23T02:36:00.240Z,5.99
2022-10-23T02:38:35.913Z,6.01
2022-10-23T02:41:25.357Z,6.01
2022-10-23T02:44:08.359Z,5.98
2022-10-23T02:46:50.716Z,6.02
2022-10-23T02:49:30.216Z,6.03
2022-10-23T02:52:09.862Z,6.04
2022-10-23T02:55:04.380Z,6.07
2022-10-23T02:57:52.938Z,6.07
2022-10-23T03:00:25.965Z,6.05
2022-10-23T03:03:06.801Z,6.08
2022-10-23T03:05:41.632Z,6.08
2022-10-23T03:08:15.227Z,6.11
2022-10-23T03:13:21.018Z,6.12
2022-10-23T03:15:53.572Z,6.15
2022-10-23T03:18:27.526Z,6.08
2022-10-23T03:21:04.370Z,6.17
2022-10-23T03:23:39.149Z,6.19
2022-10-23T03:26:11.697Z,6.20
2022-10-23T03:28:48.159Z,6.23
2022-10-23T03:31:22.461Z,6.22
2022-10-23T03:34:04.021Z,6.23
2022-10-23T03:36:38.919Z,6.24
2022-10-23T03:39:12.869Z,6.18
2022-10-23T03:41:45.311Z,6.27
2022-10-23T03:44:20.451Z,6.25
2022-10-23T03:46:53.064Z,6.28
2022-10-23T03:49:28.223Z,6.27
2022-10-23T03:52:08.724Z,6.26
2022-10-23T03:54:41.192Z,6.28
2022-10-23T03:57:13.719Z,6.28
2022-10-23T03:59:46.217Z,6.30
2022-10-23T04:02:19.134Z,6.22
2022-10-23T04:04:52.977Z,6.30
2022-10-23T04:07:25.732Z,6.36
2022-10-23T04:09:58.870Z,6.35
2022-10-23T04:12:31.393Z,6.37
2022-10-23T04:15:04.218Z,6.38
2022-10-23T04:17:36.795Z,6.37
2022-10-23T04:20:11.779Z,6.40
2022-10-23T04:22:44.610Z,6.36
2022-10-23T04:25:17.546Z,6.42
2022-10-23T04:27:51.091Z,6.42
2022-10-23T04:30:23.800Z,6.41
2022-10-23T04:32:56.221Z,6.44
2022-10-23T04:35:30.094Z,6.43
2022-10-23T04:38:02.960Z,6.46
2022-10-23T04:40:35.763Z,6.47
2022-10-23T04:43:08.803Z,6.49
2022-10-23T04:45:43.966Z,6.45
2022-10-23T04:48:16.733Z,6.49
2022-10-23T04:51:10.928Z,6.51
2022-10-23T04:54:09.763Z,6.53
2022-10-23T04:56:47.891Z,6.53
2022-10-23T04:59:23.956Z,6.55
2022-10-23T05:01:56.564Z,6.57
2022-10-23T05:04:29.853Z,6.57
2022-10-23T05:10:10.263Z,6.57
2022-10-23T05:12:48.214Z,6.56
2022-10-23T05:15:20.755Z,6.60
2022-10-23T05:17:58.790Z,6.64
2022-10-23T05:20:35.194Z,6.64
2022-10-23T05:23:11.770Z,6.67
2022-10-23T05:25:44.611Z,6.60
2022-10-23T05:28:21.273Z,6.69
2022-10-23T05:30:53.883Z,6.69
2022-10-23T05:33:32.765Z,6.69
2022-10-23T05:36:06.623Z,6.71
2022-10-23T05:38:41.294Z,6.73
2022-10-23T05:41:21.263Z,6.73
2022-10-23T05:43:54.331Z,6.73
2022-10-23T05:46:45.264Z,6.71
2022-10-23T05:49:24.864Z,6.69
2022-10-23T05:52:32.554Z,6.70
2022-10-23T05:55:19.285Z,6.72
2022-10-23T05:58:03.289Z,6.68
2022-10-23T06:00:56.073Z,6.67
2022-10-23T06:04:00.518Z,6.68
2022-10-23T06:06:51.472Z,6.68
2022-10-23T06:09:23.955Z,6.67
2022-10-23T06:12:03.324Z,6.71
2022-10-23T06:14:37.502Z,6.73
2022-10-23T06:17:10.001Z,6.70
2022-10-23T06:19:47.187Z,6.76
2022-10-23T06:22:23.128Z,6.76
2022-10-23T06:25:01.063Z,6.79
2022-10-23T06:27:36.956Z,6.81
2022-10-23T06:30:12.374Z,6.82
2022-10-23T06:32:45.567Z,6.85
2022-10-23T06:35:18.358Z,6.86
2022-10-23T06:37:51.094Z,6.86
2022-10-23T06:40:35.825Z,6.88
2022-10-23T06:43:12.676Z,6.90
2022-10-23T06:46:02.846Z,6.92
2022-10-23T06:49:07.621Z,6.94
2022-10-23T06:51:49.301Z,6.97
2022-10-23T06:54:26.463Z,6.99
2022-10-23T06:57:21.625Z,7.01
2022-10-23T06:59:56.366Z,7.02
2022-10-23T07:02:30.650Z,7.03
2022-10-23T07:05:07.680Z,7.05
2022-10-23T07:07:42.503Z,7.04
2022-10-23T07:10:16.352Z,7.03
2022-10-23T07:12:52.344Z,7.04
2022-10-23T07:15:52.551Z,7.04
2022-10-23T07:18:29.828Z,7.07
2022-10-23T07:21:21.038Z,7.06
2022-10-23T07:23:56.249Z,7.07
2022-10-23T07:26:29.081Z,7.09
2022-10-23T07:29:02.808Z,7.10
2022-10-23T07:31:37.696Z,7.10
2022-10-23T07:34:45.634Z,7.09
2022-10-23T07:37:30.729Z,7.11
2022-10-23T07:40:07.750Z,7.11
2022-10-23T07:42:46.755Z,7.13
2022-10-23T07:45:20.502Z,7.16
2022-10-23T07:47:55.126Z,7.17
2022-10-23T07:50:30.951Z,7.19
2022-10-23T07:53:03.445Z,7.20
2022-10-23T07:55:51.215Z,7.22
2022-10-23T07:58:26.149Z,7.24
2022-10-23T08:01:18.322Z,7.26
2022-10-23T08:03:53.336Z,7.29
2022-10-23T08:06:26.401Z,7.30
2022-10-23T08:09:00.978Z,7.27
2022-10-23T08:11:36.529Z,7.32
2022-10-23T08:14:11.425Z,7.34
2022-10-23T08:16:46.363Z,7.32
2022-10-23T08:19:23.077Z,7.35
2022-10-23T08:21:58.485Z,7.36
2022-10-23T08:24:31.078Z,7.33
2022-10-23T08:27:03.677Z,7.39
2022-10-23T08:29:38.686Z,7.39
2022-10-23T08:32:11.434Z,7.41
2022-10-23T08:35:11.700Z,7.42
2022-10-23T08:37:44.941Z,7.43
2022-10-23T08:40:20.056Z,7.47
2022-10-23T08:43:22.421Z,7.46
2022-10-23T08:46:13.295Z,7.51
2022-10-23T08:49:17.598Z,7.51
2022-10-23T08:51:59.346Z,7.55
2022-10-23T08:54:45.111Z,7.57
2022-10-23T08:57:18.797Z,7.58
2022-10-23T08:59:58.171Z,7.56
2022-10-23T09:02:36.156Z,7.56
2022-10-23T09:05:15.998Z,7.65
2022-10-23T09:08:01.694Z,7.67
2022-10-23T09:10:56.744Z,7.69
2022-10-23T09:14:01.349Z,7.66
2022-10-23T09:16:49.617Z,7.72
2022-10-23T09:19:28.222Z,7.75
2022-10-23T09:22:01.013Z,7.76
2022-10-23T09:24:34.969Z,7.76
2022-10-23T09:27:11.235Z,7.78
2022-10-23T09:29:49.275Z,7.81
2022-10-23T09:32:33.518Z,7.83
2022-10-23T09:35:07.251Z,7.85
2022-10-23T09:37:48.605Z,7.88
2022-10-23T09:40:30.668Z,7.90
2022-10-23T09:43:04.804Z,7.92
2022-10-23T09:45:39.207Z,7.94
2022-10-23T09:48:16.433Z,7.94
2022-10-23T09:50:51.918Z,7.99
2022-10-23T09:53:32.089Z,8.03
2022-10-23T09:56:24.533Z,8.05
2022-10-23T09:58:59.968Z,8.02
2022-10-23T10:01:38.714Z,8.07
2022-10-23T10:04:39.165Z,8.07
2022-10-23T10:07:19.937Z,8.07
2022-10-23T10:09:54.115Z,8.07
2022-10-23T10:12:43.500Z,8.10
2022-10-23T10:15:22.806Z,8.09
2022-10-23T10:18:02.998Z,8.08
2022-10-23T10:20:50.044Z,8.11
2022-10-23T10:23:32.544Z,8.11
2022-10-23T10:26:15.784Z,8.11
2022-10-23T10:29:02.516Z,8.15
2022-10-23T10:31:50.669Z,8.09
2022-10-23T10:34:30.445Z,8.18
2022-10-23T10:37:12.397Z,8.19
2022-10-23T10:39:52.286Z,8.22
2022-10-23T10:42:40.273Z,8.23
2022-10-23T10:45:26.170Z,8.29
2022-10-23T10:48:24.043Z,8.29
2022-10-23T10:51:24.313Z,8.33
2022-10-23T10:54:12.041Z,8.29
2022-10-23T10:56:45.770Z,8.41
2022-10-23T10:59:23.029Z,8.44
2022-10-23T11:02:02.404Z,8.18
2022-10-23T11:04:39.156Z,8.50
2022-10-23T11:07:15.450Z,8.50
2022-10-23T11:09:48.436Z,8.47
2022-10-23T11:12:24.085Z,8.49
2022-10-23T11:14:57.230Z,8.50
2022-10-23T11:17:38.883Z,8.47
2022-10-23T11:20:25.482Z,8.54
2022-10-23T11:23:06.590Z,8.55
2022-10-23T11:25:52.502Z,8.55
2022-10-23T11:28:39.940Z,8.55
2022-10-23T11:31:22.450Z,8.57
2022-10-23T11:34:23.360Z,8.54
2022-10-23T11:36:58.752Z,8.55
2022-10-23T11:39:33.000Z,8.54
2022-10-23T11:42:15.690Z,8.55
2022-10-23T11:44:49.807Z,8.56
2022-10-23T11:47:36.308Z,8.54
2022-10-23T11:50:23.892Z,8.56
2022-10-23T11:53:20.013Z,8.55
2022-10-23T11:56:01.502Z,8.57
2022-10-23T11:58:44.436Z,8.56
2022-10-23T12:01:26.303Z,8.53
2022-10-23T12:04:02.857Z,8.56
2022-10-23T12:06:41.940Z,8.56
2022-10-23T12:09:30.961Z,8.57
2022-10-23T12:12:14.966Z,8.57
2022-10-23T12:14:49.097Z,8.58
2022-10-23T12:17:35.987Z,8.58
2022-10-23T12:20:28.201Z,8.58
2022-10-23T12:23:21.761Z,8.58
2022-10-23T12:26:12.911Z,8.56
2022-10-23T12:28:55.017Z,8.56
2022-10-23T12:31:36.562Z,8.59
2022-10-23T12:34:23.112Z,8.60
2022-10-23T12:37:16.446Z,8.53
2022-10-23T12:39:55.306Z,8.32
2022-10-23T12:42:29.971Z,8.60
2022-10-23T12:45:06.103Z,8.60
2022-10-23T12:47:39.449Z,8.62
2022-10-23T12:50:18.957Z,8.62
2022-10-23T12:52:53.179Z,8.61
2022-10-23T12:55:32.154Z,8.61
2022-10-23T12:58:19.723Z,8.60
2022-10-23T13:00:56.795Z,8.61
2022-10-23T13:03:32.957Z,8.59
2022-10-23T13:06:06.042Z,8.61
2022-10-23T13:08:44.489Z,8.60
2022-10-23T13:11:35.251Z,8.60
2022-10-23T13:14:12.859Z,8.63
2022-10-23T13:16:47.806Z,8.61
2022-10-23T13:19:26.069Z,8.58
2022-10-23T13:22:21.490Z,8.64
2022-10-23T13:24:54.151Z,8.63
2022-10-23T13:27:33.808Z,8.64
2022-10-23T13:30:30.520Z,8.65
2022-10-23T13:33:14.652Z,8.60
2022-10-23T13:35:57.578Z,8.64
2022-10-23T13:38:32.013Z,8.64
2022-10-23T13:41:06.700Z,8.61
2022-10-23T13:43:40.932Z,8.65
2022-10-23T13:46:15.073Z,8.62
2022-10-23T13:48:48.348Z,8.63
2022-10-23T13:51:22.819Z,8.64
2022-10-23T13:53:56.238Z,8.65
2022-10-23T13:56:29.274Z,8.64
2022-10-23T13:59:03.369Z,8.68
2022-10-23T14:01:36.265Z,8.69
2022-10-23T14:04:09.653Z,8.66
2022-10-23T14:06:42.560Z,8.63
2022-10-23T14:09:17.607Z,8.67
2022-10-23T14:11:50.130Z,8.68
2022-10-23T14:14:24.130Z,8.68
2022-10-23T14:16:56.828Z,8.70
2022-10-23T14:19:29.667Z,8.66
2022-10-23T14:22:02.447Z,8.70
2022-10-23T14:24:35.941Z,8.71
2022-10-23T14:27:08.415Z,8.71
2022-10-23T14:29:42.647Z,8.71
2022-10-23T14:32:15.478Z,8.72
2022-10-23T14:34:51.779Z,8.71
2022-10-23T14:37:26.461Z,8.71
2022-10-23T14:39:59.407Z,8.65
2022-10-23T14:42:34.618Z,8.68
2022-10-23T14:45:09.964Z,8.66
2022-10-23T14:47:46.465Z,8.70
2022-10-23T14:50:19.443Z,8.70
2022-10-23T14:52:52.009Z,8.73
2022-10-23T14:55:24.427Z,8.70
2022-10-23T14:57:57.523Z,8.74
2022-10-23T15:00:31.728Z,8.74
2022-10-23T15:03:04.284Z,8.72
2022-10-23T15:05:41.877Z,8.73
2022-10-23T15:08:14.572Z,8.73
2022-10-23T15:10:47.209Z,8.76
2022-10-23T15:13:19.884Z,8.78
2022-10-23T15:16:01.868Z,8.76
2022-10-23T15:21:14.526Z,8.81
2022-10-23T15:23:47.403Z,8.81
2022-10-23T15:26:23.107Z,8.81
2022-10-23T15:28:57.290Z,8.83
2022-10-23T15:31:52.106Z,8.77
2022-10-23T15:34:26.871Z,8.82
2022-10-23T15:37:00.036Z,8.83
2022-10-23T15:39:33.996Z,8.83
2022-10-23T15:42:06.929Z,8.83
2022-10-23T15:44:40.477Z,8.85
2022-10-23T15:47:14.499Z,8.83
2022-10-23T15:49:47.140Z,8.86
2022-10-23T15:52:19.712Z,8.85
2022-10-23T15:54:52.200Z,8.86
2022-10-23T15:57:24.631Z,8.86
2022-10-23T15:59:57.196Z,8.82
2022-10-23T16:02:31.289Z,8.87
2022-10-23T16:05:04.486Z,8.87
2022-10-23T16:07:37.072Z,8.83
2022-10-23T16:10:09.874Z,8.87
2022-10-23T16:12:42.804Z,8.88
2022-10-23T16:15:15.527Z,8.88
2022-10-23T16:17:49.467Z,8.89
2022-10-23T16:20:22.090Z,8.90
2022-10-23T16:22:55.207Z,8.90
2022-10-23T16:25:30.905Z,8.92
2022-10-23T16:28:04.199Z,8.93
2022-10-23T16:30:41.131Z,8.93
2022-10-23T16:33:15.072Z,8.91
2022-10-23T16:35:47.652Z,8.94
2022-10-23T16:38:24.800Z,8.87
2022-10-23T16:40:57.614Z,8.94
2022-10-23T16:43:50.029Z,8.95
2022-10-23T16:46:42.552Z,8.95
2022-10-23T16:49:16.690Z,8.97
2022-10-23T16:51:49.290Z,8.96
2022-10-23T16:54:21.988Z,8.97
2022-10-23T16:56:54.669Z,8.91
2022-10-23T16:59:27.484Z,8.96
2022-10-23T17:02:00.312Z,8.97
2022-10-23T17:04:35.980Z,8.94
2022-10-23T17:07:08.873Z,8.95
2022-10-23T17:09:44.766Z,8.94
2022-10-23T17:12:18.117Z,8.92
2022-10-23T17:14:50.818Z,8.94
2022-10-23T17:17:23.305Z,8.92
2022-10-23T17:19:57.342Z,8.91
2022-10-23T17:22:30.170Z,8.93
2022-10-23T17:25:03.110Z,8.90
2022-10-23T17:27:36.224Z,8.91
2022-10-23T17:30:12.697Z,8.92
2022-10-23T17:32:46.419Z,8.91
2022-10-23T17:35:21.320Z,8.92
2022-10-23T17:37:55.574Z,8.92
2022-10-23T17:40:31.050Z,8.92
2022-10-23T17:43:04.552Z,8.91
2022-10-23T17:45:37.370Z,8.87
2022-10-23T17:48:10.047Z,8.90
2022-10-23T17:50:44.090Z,8.91
2022-10-23T17:53:16.790Z,8.90
2022-10-23T17:55:49.464Z,8.89
2022-10-23T17:58:22.114Z,8.88
2022-10-23T18:00:54.728Z,8.80
2022-10-23T18:03:27.312Z,8.89
2022-10-23T18:06:06.514Z,8.79
2022-10-23T18:08:40.430Z,8.86
2022-10-23T18:11:15.887Z,8.86
2022-10-23T18:13:49.285Z,8.86
2022-10-23T18:16:21.988Z,8.85
2022-10-23T18:18:55.183Z,8.85
2022-10-23T18:21:29.149Z,8.86
2022-10-23T18:24:02.265Z,8.84
2022-10-23T18:26:37.767Z,8.84
2022-10-23T18:29:12.035Z,8.85
2022-10-23T18:31:45.413Z,8.85
2022-10-23T18:34:20.163Z,8.85
2022-10-23T18:36:55.240Z,8.81
2022-10-23T18:39:28.713Z,8.81
2022-10-23T18:42:01.264Z,8.85
2022-10-23T18:44:34.021Z,8.84
2022-10-23T18:47:06.798Z,8.83
2022-10-23T18:49:39.305Z,8.84
2022-10-23T18:52:13.259Z,8.82
2022-10-23T18:54:45.900Z,8.81
2022-10-23T18:57:18.606Z,8.81
2022-10-23T18:59:51.249Z,8.82
2022-10-23T19:02:24.053Z,8.79
2022-10-23T19:04:56.988Z,8.73
2022-10-23T19:07:31.198Z,8.79
2022-10-23T19:10:04.161Z,8.80
2022-10-23T19:12:37.155Z,8.83
2022-10-23T19:15:10.716Z,8.82
2022-10-23T19:17:43.658Z,8.83
2022-10-23T19:20:20.012Z,8.82
2022-10-23T19:22:55.815Z,8.84
2022-10-23T19:25:32.048Z,8.82
2022-10-23T19:28:05.347Z,8.84
2022-10-23T19:30:38.125Z,8.81
2022-10-23T19:33:10.779Z,8.84
2022-10-23T19:35:43.405Z,8.84
2022-10-23T19:38:17.283Z,8.82
2022-10-23T19:40:50.192Z,8.79
2022-10-23T19:43:22.801Z,8.83
2022-10-23T19:45:55.566Z,8.84
2022-10-23T19:48:28.232Z,8.84
2022-10-23T19:51:00.878Z,8.85
2022-10-23T19:53:35.857Z,8.86
2022-10-23T19:56:11.160Z,8.83
2022-10-23T19:58:43.795Z,8.85
2022-10-23T20:01:18.832Z,8.88
2022-10-23T20:03:51.921Z,8.87
2022-10-23T20:06:26.575Z,8.88
2022-10-23T20:09:00.952Z,8.86
2022-10-23T20:11:33.836Z,8.88
2022-10-23T20:14:09.881Z,8.88
2022-10-23T20:16:50.064Z,8.87
2022-10-23T20:19:24.954Z,8.86
2022-10-23T20:21:57.378Z,8.85
2022-10-23T20:24:31.477Z,8.85
2022-10-23T20:27:04.263Z,8.81
2022-10-23T20:29:36.904Z,8.85
2022-10-23T20:32:09.724Z,8.82
2022-10-23T20:34:42.756Z,8.84
2022-10-23T20:37:15.808Z,8.79
2022-10-23T20:39:50.126Z,8.84
2022-10-23T20:42:22.521Z,8.81
2022-10-23T20:44:54.924Z,8.82
2022-10-23T20:47:27.422Z,8.79
2022-10-23T20:49:59.940Z,8.80
2022-10-23T20:55:07.962Z,8.77
2022-10-23T20:57:40.485Z,8.75
2022-10-23T21:00:13.560Z,8.74
2022-10-23T21:02:48.565Z,8.72
2022-10-23T21:05:23.635Z,8.68
2022-10-23T21:07:56.390Z,8.68
2022-10-23T21:13:03.297Z,8.65
2022-10-23T21:15:35.705Z,8.66
2022-10-23T21:18:27.475Z,8.64
2022-10-23T21:21:10.061Z,8.62
2022-10-23T21:23:42.494Z,8.61
2022-10-23T21:26:17.765Z,8.59
2022-10-23T21:28:56.163Z,8.58
2022-10-23T21:31:33.967Z,8.56
2022-10-23T21:34:06.511Z,8.43
2022-10-23T21:36:48.549Z,8.55
2022-10-23T21:39:31.532Z,8.54
2022-10-23T21:42:05.818Z,8.55
2022-10-23T21:44:38.278Z,8.55
2022-10-23T21:47:10.786Z,8.55
2022-10-23T21:49:44.169Z,8.55
2022-10-23T21:52:19.056Z,8.52
2022-10-23T21:54:52.458Z,8.54
2022-10-23T21:57:29.558Z,8.53
2022-10-23T22:00:02.037Z,8.50
2022-10-23T22:02:45.519Z,8.51
2022-10-23T22:05:18.214Z,8.49
2022-10-23T22:07:50.617Z,8.49
2022-10-23T22:10:23.146Z,8.48
2022-10-23T22:12:57.098Z,8.47
2022-10-23T22:15:29.708Z,8.48
2022-10-23T22:18:02.763Z,8.47
2022-10-23T22:20:35.359Z,8.47
2022-10-23T22:23:07.879Z,8.46
2022-10-23T22:25:43.539Z,8.41
2022-10-23T22:28:17.497Z,8.46
2022-10-23T22:30:50.026Z,8.43
2022-10-23T22:33:22.591Z,8.39
2022-10-23T22:36:00.679Z,8.46
2022-10-23T22:38:33.052Z,8.45
2022-10-23T22:41:05.960Z,8.41
2022-10-23T22:43:39.884Z,8.38
2022-10-23T22:46:14.343Z,8.43
2022-10-23T22:48:47.159Z,8.42
2022-10-23T22:51:22.093Z,8.41
2022-10-23T22:53:55.266Z,8.38
2022-10-23T22:56:29.420Z,8.38
2022-10-23T22:59:04.227Z,8.39
2022-10-23T23:01:38.337Z,8.37
2022-10-23T23:04:19.818Z,8.36
2022-10-23T23:07:05.285Z,8.34
2022-10-23T23:09:39.028Z,8.33
2022-10-23T23:12:13.351Z,8.33
2022-10-23T23:14:47.540Z,8.31
2022-10-23T23:17:19.985Z,8.30
2022-10-23T23:19:52.355Z,8.31
2022-10-23T23:25:02.286Z,8.30
2022-10-23T23:27:36.386Z,8.28
2022-10-23T23:30:11.218Z,8.29
2022-10-23T23:32:44.035Z,8.20
2022-10-23T23:35:17.038Z,8.28
2022-10-23T23:37:49.431Z,8.27
2022-10-23T23:40:22.007Z,8.26
2022-10-23T23:42:54.416Z,8.25
2022-10-23T23:45:28.409Z,8.26
2022-10-23T23:48:00.914Z,8.22
2022-10-23T23:50:33.326Z,8.26
2022-10-23T23:53:05.883Z,8.21
2022-10-23T23:55:38.541Z,8.22
2022-10-23T23:58:12.047Z,8.27
